createdAt,value
2023-05-20T04:55:15.889Z,25.40
2023-05-20T05:00:19.666Z,22.70
2023-05-20T05:05:23.361Z,23.63
2023-05-20T05:10:28.355Z,22.77
2023-05-20T05:15:31.897Z,22.48
2023-05-20T05:20:35.416Z,23.73
2023-05-20T05:25:40.477Z,24.50
2023-05-20T05:30:44.197Z,24.95
2023-05-20T05:35:47.681Z,27.77
2023-05-20T05:40:52.569Z,31.98
2023-05-20T05:45:56.047Z,25.85
2023-05-20T05:50:59.845Z,24.25
2023-05-20T05:56:04.870Z,24.30
2023-05-20T06:01:08.334Z,28.38
2023-05-20T06:06:11.867Z,31.15
2023-05-20T06:11:17.146Z,24.60
2023-05-20T06:16:20.671Z,26.17
2023-05-20T06:21:24.376Z,27.05
2023-05-20T06:26:29.632Z,28.20
2023-05-20T06:31:33.690Z,27.08
2023-05-20T06:36:37.430Z,24.88
2023-05-20T06:41:42.316Z,23.75
2023-05-20T06:46:46.260Z,22.23
2023-05-20T06:51:50.548Z,22.05
2023-05-20T06:56:55.452Z,27.92
2023-05-20T07:01:59.229Z,24.85
2023-05-20T07:07:02.746Z,27.77
2023-05-20T07:12:08.770Z,23.50
2023-05-20T07:17:13.120Z,24.42
2023-05-20T07:22:16.608Z,25.80
2023-05-20T07:27:21.712Z,23.83
2023-05-20T07:32:25.223Z,21.50
2023-05-20T07:37:28.712Z,23.75
2023-05-20T07:42:33.522Z,18.98
2023-05-20T07:47:37.309Z,19.85
2023-05-20T07:52:55.429Z,19.23
2023-05-20T07:58:01.807Z,18.30
2023-05-20T08:03:08.363Z,19.75
2023-05-20T08:08:12.478Z,18.02
2023-05-20T08:13:17.259Z,18.77
2023-05-20T08:18:20.891Z,18.70
2023-05-20T08:23:24.712Z,17.58
2023-05-20T08:28:29.699Z,17.27
2023-05-20T08:33:33.440Z,16.33
2023-05-20T08:38:37.360Z,17.48
2023-05-20T08:43:42.492Z,13.60
2023-05-20T08:48:46.873Z,11.30
2023-05-20T08:53:50.498Z,10.55
2023-05-20T08:58:56.131Z,12.50
2023-05-20T09:03:59.618Z,11.90
2023-05-20T09:09:03.167Z,13.75
2023-05-20T09:14:08.170Z,10.13
2023-05-20T09:19:12.176Z,12.07
2023-05-20T09:24:15.738Z,13.98
2023-05-20T09:29:21.761Z,11.45
2023-05-20T09:34:25.769Z,9.27
2023-05-20T09:39:32.864Z,10.23
2023-05-20T09:44:38.205Z,10.35
2023-05-20T09:49:42.915Z,8.70
2023-05-20T09:54:47.490Z,8.27
2023-05-20T09:59:54.445Z,9.38
2023-05-20T10:04:59.255Z,9.52
2023-05-20T10:10:13.035Z,11.32
2023-05-20T10:15:23.664Z,9.85
2023-05-20T10:20:27.738Z,7.95
2023-05-20T10:25:31.388Z,9.85
2023-05-20T10:30:36.500Z,8.40
2023-05-20T10:35:48.815Z,11.50
2023-05-20T10:40:52.443Z,11.65
2023-05-20T10:45:58.684Z,8.30
2023-05-20T10:51:04.909Z,9.82
2023-05-20T10:56:18.422Z,9.07
2023-05-20T11:01:27.771Z,12.30
2023-05-20T11:06:31.694Z,8.63
2023-05-20T11:11:35.250Z,8.98
2023-05-20T11:16:40.305Z,14.63
2023-05-20T11:21:47.144Z,11.55
2023-05-20T11:26:50.859Z,11.55
2023-05-20T11:31:56.267Z,10.32
2023-05-20T11:37:00.166Z,10.57
2023-05-20T11:42:06.076Z,12.38
2023-05-20T11:47:11.272Z,10.55
2023-05-20T11:52:15.132Z,12.65
2023-05-20T11:57:20.134Z,15.30
2023-05-20T12:02:25.046Z,11.93
2023-05-20T12:07:28.679Z,10.73
2023-05-20T12:12:32.577Z,12.75
2023-05-20T12:17:48.030Z,11.82
2023-05-20T12:22:52.130Z,11.98
2023-05-20T12:27:56.640Z,14.15
2023-05-20T12:33:02.546Z,15.40
2023-05-20T12:38:06.812Z,14.00
2023-05-20T12:43:10.616Z,17.45
2023-05-20T12:48:15.586Z,14.77
2023-05-20T12:53:18.999Z,15.63
2023-05-20T12:58:22.821Z,19.35
2023-05-20T13:03:28.292Z,16.98
2023-05-20T13:08:32.075Z,15.95
2023-05-20T13:13:35.590Z,15.85
2023-05-20T13:18:40.479Z,16.10
2023-05-20T13:23:44.281Z,16.77
2023-05-20T13:28:47.801Z,16.65
2023-05-20T13:33:53.224Z,16.65
2023-05-20T13:38:57.014Z,17.10
2023-05-20T13:44:00.793Z,18.85
2023-05-20T13:49:05.715Z,16.98
2023-05-20T13:54:09.485Z,17.10
2023-05-20T13:59:13.076Z,17.15
2023-05-20T14:04:18.740Z,16.75
2023-05-20T14:09:22.378Z,14.10
2023-05-20T14:14:25.892Z,14.40
2023-05-20T14:19:30.766Z,14.35
2023-05-20T14:24:34.375Z,14.07
2023-05-20T14:29:37.924Z,13.52
2023-05-20T14:34:42.761Z,14.52
2023-05-20T14:39:46.974Z,12.80
2023-05-20T14:44:50.510Z,14.30
2023-05-20T14:49:55.690Z,12.68
2023-05-20T14:54:59.422Z,13.70
2023-05-20T15:00:04.146Z,13.00
2023-05-20T15:05:12.533Z,11.90
2023-05-20T15:10:16.499Z,11.63
2023-05-20T15:15:21.887Z,14.35
2023-05-20T15:20:27.041Z,13.38
2023-05-20T15:25:30.829Z,11.60
2023-05-20T15:30:34.428Z,13.25
2023-05-20T15:35:39.649Z,13.43
2023-05-20T15:40:43.670Z,14.70
2023-05-20T15:45:48.296Z,12.18
2023-05-20T15:50:53.261Z,11.90
2023-05-20T15:55:57.017Z,12.27
2023-05-20T16:01:00.578Z,13.85
2023-05-20T16:06:06.254Z,21.27
2023-05-20T16:11:10.583Z,16.58
2023-05-20T16:16:14.498Z,14.20
2023-05-20T16:21:19.612Z,14.90
2023-05-20T16:26:23.193Z,15.60
2023-05-20T16:31:27.246Z,15.77
2023-05-20T16:36:34.812Z,16.67
2023-05-20T16:41:38.628Z,17.45
2023-05-20T16:46:42.211Z,16.20
2023-05-20T16:51:47.675Z,17.92
2023-05-20T16:56:51.721Z,16.50
2023-05-20T17:01:55.267Z,14.90
2023-05-20T17:07:02.069Z,17.50
2023-05-20T17:12:06.419Z,14.68
2023-05-20T17:17:10.566Z,20.33
2023-05-20T17:22:15.724Z,14.07
2023-05-20T17:27:19.181Z,15.65
2023-05-20T17:32:22.877Z,21.42
2023-05-20T17:37:27.958Z,16.40
2023-05-20T17:42:31.406Z,16.42
2023-05-20T17:47:34.937Z,16.67
2023-05-20T17:52:40.175Z,16.58
2023-05-20T17:57:43.603Z,16.38
2023-05-20T18:08:33.129Z,22.73
2023-05-20T18:13:37.319Z,26.25
2023-05-20T18:18:40.818Z,31.73
2023-05-20T18:23:45.792Z,27.60
2023-05-20T18:28:50.360Z,29.80
2023-05-20T18:33:53.806Z,43.40
2023-05-20T18:38:58.746Z,41.92
2023-05-20T18:44:03.846Z,43.33
2023-05-20T18:49:10.310Z,50.63
2023-05-20T18:54:15.475Z,35.90
2023-05-20T18:59:19.340Z,43.28
2023-05-20T19:04:22.762Z,40.65
2023-05-20T19:09:28.021Z,39.25
2023-05-20T19:14:32.063Z,33.30
2023-05-20T19:19:35.723Z,30.15
2023-05-20T19:24:40.718Z,43.97
2023-05-20T19:29:45.137Z,36.90
2023-05-20T19:34:49.504Z,32.38
2023-05-20T19:39:54.774Z,31.73
2023-05-20T19:44:58.523Z,32.50
2023-05-20T19:50:02.533Z,58.47
2023-05-20T19:55:08.629Z,40.50
2023-05-20T20:00:13.379Z,36.05
2023-05-20T20:05:17.537Z,38.05
2023-05-20T20:10:23.839Z,34.90
2023-05-20T20:15:28.186Z,36.15
2023-05-20T20:20:40.129Z,40.67
2023-05-20T20:25:48.221Z,36.40
2023-05-20T20:30:52.064Z,48.30
2023-05-20T20:35:56.894Z,33.60
2023-05-20T20:41:03.921Z,40.53
2023-05-20T20:46:07.485Z,39.08
2023-05-20T20:51:10.948Z,35.28
2023-05-20T20:56:17.792Z,32.72
2023-05-20T21:01:21.730Z,32.10
2023-05-20T21:06:25.291Z,36.22
2023-05-20T21:11:31.688Z,30.35
2023-05-20T21:16:35.723Z,30.05
2023-05-20T21:21:39.259Z,32.42
2023-05-20T21:26:44.326Z,34.40
2023-05-20T21:31:47.889Z,30.83
2023-05-20T21:36:51.321Z,34.45
2023-05-20T21:41:56.615Z,30.30
2023-05-20T21:47:00.606Z,32.58
2023-05-20T21:52:04.268Z,32.40
2023-05-20T21:57:09.490Z,34.30
2023-05-20T22:02:13.366Z,31.90
2023-05-20T22:07:17.110Z,36.83
2023-05-20T22:12:22.943Z,34.72
2023-05-20T22:17:27.039Z,36.92
2023-05-20T22:22:32.382Z,41.45
2023-05-20T22:27:38.728Z,33.03
2023-05-20T22:45:42.843Z,35.55
2023-05-20T22:50:46.586Z,35.75
2023-05-20T22:55:50.305Z,34.88
2023-05-20T23:00:55.258Z,35.17
2023-05-20T23:05:58.737Z,33.40
2023-05-20T23:11:02.429Z,33.45
2023-05-20T23:16:08.339Z,36.22
2023-05-20T23:21:11.955Z,36.78
2023-05-20T23:26:15.443Z,38.95
2023-05-20T23:31:22.647Z,33.88
2023-05-20T23:36:26.684Z,36.83
2023-05-20T23:41:30.449Z,35.17
2023-05-20T23:46:35.419Z,28.90
2023-05-20T23:51:38.863Z,26.48
2023-05-20T23:56:42.342Z,26.23
